Time,TemperatureF,DewpointF,PressureIn,WindDirection,WindDirectionDegrees,WindSpeedMPH,WindSpeedGustMPH,Humidity,HourlyPrecipIn,Conditions,Clouds,dailyrainin,SoftwareType,DateUTC
2013-04-11 00:02:00,44.0,39.0,29.89,SSW,211,4.0,8.0,82,0.00,,,0.05,,2013-04-11 06:02:00,
2013-04-11 00:12:00,44.0,39.0,29.89,SSW,211,4.0,8.0,82,0.00,,,0.05,,2013-04-11 06:12:00,
2013-04-11 00:21:00,43.0,38.0,29.90,West,262,2.0,11.0,83,0.00,,,0.05,,2013-04-11 06:21:00,
2013-04-11 00:32:00,42.0,38.0,29.91,West,270,1.0,6.0,86,0.00,,,0.05,,2013-04-11 06:32:00,
2013-04-11 00:42:00,42.0,38.0,29.91,West,270,1.0,6.0,86,0.00,,,0.05,,2013-04-11 06:42:00,
2013-04-11 00:52:00,42.0,38.0,29.91,SW,219,2.0,6.0,86,0.00,,,0.05,,2013-04-11 06:52:00,
2013-04-11 01:02:00,42.0,38.0,29.91,SSW,202,0.0,6.0,85,0.00,,,0.05,,2013-04-11 07:02:00,
2013-04-11 01:12:00,42.0,38.0,29.91,SSW,202,0.0,6.0,85,0.00,,,0.05,,2013-04-11 07:12:00,
2013-04-11 01:21:00,41.0,37.0,29.92,NE,38,0.0,4.0,86,0.00,,,0.05,,2013-04-11 07:21:00,
2013-04-11 01:32:00,42.0,38.0,29.92,SSW,203,8.0,15.0,85,0.00,,,0.05,,2013-04-11 07:32:00,
2013-04-11 01:42:00,42.0,38.0,29.92,SSW,203,8.0,15.0,85,0.00,,,0.05,,2013-04-11 07:42:00,
2013-04-11 01:52:00,42.0,37.0,29.92,South,176,4.0,12.0,82,0.00,,,0.05,,2013-04-11 07:52:00,
2013-04-11 02:02:00,43.0,38.0,29.93,WSW,238,4.0,12.0,81,0.00,,,0.05,,2013-04-11 08:02:00,
2013-04-11 02:11:00,43.0,38.0,29.93,WSW,238,4.0,12.0,81,0.00,,,0.05,,2013-04-11 08:11:00,
2013-04-11 02:22:00,43.0,37.0,29.93,SW,230,7.0,14.0,80,0.00,,,0.05,,2013-04-11 08:22:00,
2013-04-11 02:32:00,42.0,36.0,29.94,SSW,209,8.0,13.0,80,0.00,,,0.05,,2013-04-11 08:32:00,
2013-04-11 02:41:00,42.0,36.0,29.94,SSW,209,8.0,13.0,80,0.00,,,0.05,,2013-04-11 08:41:00,
2013-04-11 02:51:00,42.0,37.0,29.94,SW,222,6.0,12.0,81,0.00,,,0.05,,2013-04-11 08:51:00,
2013-04-11 03:01:00,41.0,36.0,29.94,SW,231,6.0,10.0,81,0.00,,,0.05,,2013-04-11 09:01:00,
2013-04-11 03:11:00,41.0,36.0,29.94,SW,231,6.0,10.0,81,0.00,,,0.05,,2013-04-11 09:11:00,
2013-04-11 03:22:00,41.0,36.0,29.95,SSW,207,5.0,10.0,81,0.00,,,0.05,,2013-04-11 09:22:00,
2013-04-11 03:32:00,41.0,36.0,29.95,SW,232,4.0,9.0,81,0.00,,,0.05,,2013-04-11 09:32:00,
2013-04-11 03:42:00,41.0,36.0,29.95,SW,232,4.0,9.0,81,0.00,,,0.05,,2013-04-11 09:42:00,
2013-04-11 03:52:00,41.0,36.0,29.95,SW,225,4.0,11.0,81,0.00,,,0.05,,2013-04-11 09:52:00,
2013-04-11 04:02:00,41.0,35.0,29.95,SW,217,5.0,12.0,80,0.00,,,0.05,,2013-04-11 10:02:00,
2013-04-11 04:12:00,41.0,35.0,29.95,SW,215,5.0,10.0,80,0.00,,,0.05,,2013-04-11 10:12:00,
2013-04-11 04:22:00,41.0,35.0,29.95,SW,215,5.0,10.0,80,0.00,,,0.05,,2013-04-11 10:22:00,
2013-04-11 04:32:00,41.0,37.0,29.96,SSW,206,5.0,8.0,85,0.00,,,0.05,,2013-04-11 10:32:00,
2013-04-11 04:41:00,41.0,37.0,29.96,SSW,206,5.0,8.0,85,0.00,,,0.05,,2013-04-11 10:41:00,
2013-04-11 04:52:00,40.0,34.0,29.96,SSW,204,4.0,8.0,80,0.00,,,0.05,,2013-04-11 10:52:00,
2013-04-11 05:02:00,40.0,34.0,29.96,SSW,204,4.0,8.0,80,0.00,,,0.05,,2013-04-11 11:02:00,
2013-04-11 05:22:00,39.0,34.0,29.96,SSW,196,3.0,7.0,81,0.00,,,0.05,,2013-04-11 11:22:00,
2013-04-11 05:32:00,39.0,34.0,29.96,SSW,197,2.0,6.0,82,0.00,,,0.05,,2013-04-11 11:32:00,
2013-04-11 05:42:00,39.0,34.0,29.96,SSW,197,2.0,6.0,82,0.00,,,0.05,,2013-04-11 11:42:00,
2013-04-11 05:52:00,38.0,33.0,29.96,SSW,192,1.0,6.0,82,0.00,,,0.05,,2013-04-11 11:52:00,
2013-04-11 06:02:00,38.0,33.0,29.97,SSW,207,3.0,7.0,83,0.00,,,0.05,,2013-04-11 12:02:00,
2013-04-11 06:12:00,38.0,33.0,29.97,SSW,207,3.0,7.0,83,0.00,,,0.05,,2013-04-11 12:12:00,
2013-04-11 06:22:00,38.0,33.0,29.98,SW,231,2.0,7.0,82,0.00,,,0.05,,2013-04-11 12:22:00,
2013-04-11 06:32:00,38.0,33.0,29.97,SSW,194,2.0,6.0,82,0.00,,,0.05,,2013-04-11 12:32:00,
2013-04-11 06:42:00,38.0,33.0,29.97,SSW,194,2.0,6.0,82,0.00,,,0.05,,2013-04-11 12:42:00,
2013-04-11 06:52:00,38.0,33.0,29.97,SSW,193,4.0,6.0,82,0.00,,,0.05,,2013-04-11 12:52:00,
2013-04-11 07:02:00,38.0,33.0,29.97,SSW,196,0.0,5.0,82,0.00,,,0.05,,2013-04-11 13:02:00,
2013-04-11 07:12:00,37.0,32.0,29.97,SSW,209,3.0,6.0,82,0.00,,,0.05,,2013-04-11 13:12:00,
2013-04-11 07:22:00,37.0,32.0,29.97,SSW,209,3.0,6.0,82,0.00,,,0.05,,2013-04-11 13:22:00,
2013-04-11 07:32:00,37.0,32.0,29.98,South,187,4.0,7.0,83,0.00,,,0.05,,2013-04-11 13:32:00,
2013-04-11 07:42:00,37.0,32.0,29.98,South,187,4.0,7.0,83,0.00,,,0.05,,2013-04-11 13:42:00,
2013-04-11 07:52:00,37.0,32.0,29.98,SSW,213,2.0,5.0,83,0.00,,,0.05,,2013-04-11 13:52:00,
2013-04-11 08:02:00,37.0,32.0,29.99,SSW,198,4.0,7.0,83,0.00,,,0.05,,2013-04-11 14:02:00,
2013-04-11 08:12:00,37.0,32.0,29.99,SSW,198,4.0,7.0,83,0.00,,,0.05,,2013-04-11 14:12:00,
2013-04-11 08:22:00,37.0,32.0,29.99,South,185,3.0,6.0,83,0.00,,,0.05,,2013-04-11 14:22:00,
2013-04-11 08:32:00,37.0,32.0,30.00,South,173,1.0,5.0,83,0.00,,,0.05,,2013-04-11 14:32:00,
2013-04-11 08:41:00,37.0,32.0,30.00,South,173,1.0,5.0,83,0.00,,,0.05,,2013-04-11 14:41:00,
2013-04-11 08:52:00,38.0,33.0,30.00,South,173,0.0,2.0,83,0.00,,,0.05,,2013-04-11 14:52:00,
2013-04-11 09:02:00,39.0,34.0,30.00,SW,229,3.0,11.0,82,0.00,,,0.05,,2013-04-11 15:02:00,
2013-04-11 09:12:00,41.0,35.0,30.01,South,186,5.0,8.0,80,0.00,,,0.05,,2013-04-11 15:12:00,
2013-04-11 09:21:00,41.0,35.0,30.01,South,186,5.0,8.0,80,0.00,,,0.05,,2013-04-11 15:21:00,
2013-04-11 09:32:00,41.0,34.0,30.01,South,188,6.0,11.0,77,0.00,,,0.05,,2013-04-11 15:32:00,
2013-04-11 09:42:00,41.0,34.0,30.01,South,188,6.0,11.0,77,0.00,,,0.05,,2013-04-11 15:42:00,
2013-04-11 09:52:00,42.0,35.0,30.01,SSW,202,4.0,9.0,75,0.00,,,0.05,,2013-04-11 15:52:00,
2013-04-11 10:02:00,43.0,35.0,30.01,SW,216,4.0,9.0,73,0.00,,,0.05,,2013-04-11 16:02:00,
2013-04-11 10:12:00,43.0,35.0,30.01,SW,216,4.0,9.0,73,0.00,,,0.05,,2013-04-11 16:12:00,
2013-04-11 10:22:00,43.0,35.0,30.01,SW,223,6.0,8.0,72,0.00,,,0.05,,2013-04-11 16:22:00,
2013-04-11 10:32:00,44.0,34.0,30.01,SW,227,8.0,15.0,68,0.00,,,0.05,,2013-04-11 16:32:00,
2013-04-11 10:41:00,45.0,35.0,30.01,SW,236,9.0,15.0,67,0.00,,,0.05,,2013-04-11 16:41:00,
2013-04-11 10:52:00,45.0,35.0,30.01,SW,236,9.0,15.0,67,0.00,,,0.05,,2013-04-11 16:52:00,
2013-04-11 11:02:00,46.0,35.0,30.01,SW,222,8.0,18.0,64,0.00,,,0.05,,2013-04-11 17:02:00,
2013-04-11 11:12:00,46.0,35.0,30.01,SW,222,8.0,18.0,64,0.00,,,0.05,,2013-04-11 17:12:00,
2013-04-11 11:22:00,46.0,34.0,30.00,SSW,199,8.0,15.0,62,0.00,,,0.05,,2013-04-11 17:22:00,
2013-04-11 11:32:00,46.0,34.0,30.00,SSW,197,9.0,19.0,62,0.00,,,0.05,,2013-04-11 17:32:00,
2013-04-11 11:42:00,46.0,34.0,30.00,SSW,197,9.0,19.0,62,0.00,,,0.05,,2013-04-11 17:42:00,
2013-04-11 11:52:00,46.0,34.0,30.00,SSW,211,11.0,19.0,62,0.00,,,0.05,,2013-04-11 17:52:00,
2013-04-11 12:02:00,46.0,35.0,30.00,SW,218,12.0,21.0,65,0.00,,,0.05,,2013-04-11 18:02:00,
2013-04-11 12:12:00,46.0,35.0,30.00,SW,218,12.0,21.0,65,0.00,,,0.05,,2013-04-11 18:12:00,
2013-04-11 12:22:00,46.0,35.0,30.00,SSW,212,11.0,15.0,66,0.00,,,0.05,,2013-04-11 18:22:00,
2013-04-11 12:32:00,46.0,35.0,30.00,SW,223,11.0,18.0,64,0.00,,,0.05,,2013-04-11 18:32:00,
2013-04-11 12:42:00,46.0,35.0,30.00,SW,223,11.0,18.0,64,0.00,,,0.05,,2013-04-11 18:42:00,
2013-04-11 13:03:00,45.0,35.0,29.98,SSW,206,10.0,17.0,67,0.00,,,0.05,,2013-04-11 19:03:00,
2013-04-11 13:13:00,45.0,35.0,29.98,SSW,206,10.0,17.0,67,0.00,,,0.05,,2013-04-11 19:13:00,
2013-04-11 13:22:00,46.0,34.0,29.98,SW,225,11.0,20.0,63,0.00,,,0.05,,2013-04-11 19:22:00,
2013-04-11 13:32:00,45.0,33.0,29.98,SSW,213,9.0,20.0,63,0.00,,,0.05,,2013-04-11 19:32:00,
2013-04-11 13:42:00,45.0,33.0,29.98,SSW,213,9.0,20.0,63,0.00,,,0.05,,2013-04-11 19:42:00,
2013-04-11 13:52:00,47.0,33.0,29.98,WSW,248,8.0,15.0,59,0.00,,,0.05,,2013-04-11 19:52:00,
2013-04-11 14:02:00,46.0,32.0,29.98,NW,306,9.0,19.0,57,0.00,,,0.05,,2013-04-11 20:02:00,
2013-04-11 14:12:00,46.0,32.0,29.98,NW,306,9.0,19.0,57,0.00,,,0.05,,2013-04-11 20:12:00,
2013-04-11 14:21:00,46.0,30.0,29.98,SW,230,10.0,21.0,54,0.00,,,0.05,,2013-04-11 20:21:00,
2013-04-11 14:33:00,47.0,31.0,29.98,West,259,12.0,25.0,54,0.00,,,0.05,,2013-04-11 20:33:00,
2013-04-11 14:42:00,47.0,31.0,29.98,West,259,12.0,25.0,54,0.00,,,0.05,,2013-04-11 20:42:00,
2013-04-11 14:52:00,47.0,32.0,29.98,SW,229,8.0,20.0,55,0.00,,,0.05,,2013-04-11 20:52:00,
2013-04-11 15:02:00,47.0,31.0,29.98,WSW,248,11.0,21.0,53,0.00,,,0.05,,2013-04-11 21:02:00,
2013-04-11 15:11:00,47.0,31.0,29.98,WSW,248,11.0,21.0,53,0.00,,,0.05,,2013-04-11 21:11:00,
2013-04-11 15:22:00,47.0,30.0,29.98,SSW,213,13.0,23.0,51,0.00,,,0.05,,2013-04-11 21:22:00,
2013-04-11 15:32:00,47.0,29.0,29.99,WSW,247,13.0,23.0,49,0.00,,,0.05,,2013-04-11 21:32:00,
2013-04-11 15:42:00,47.0,29.0,29.99,WSW,247,13.0,23.0,49,0.00,,,0.05,,2013-04-11 21:42:00,
2013-04-11 15:53:00,47.0,29.0,29.98,West,272,11.0,21.0,49,0.00,,,0.05,,2013-04-11 21:53:00,
2013-04-11 16:02:00,48.0,30.0,29.98,SW,221,10.0,23.0,50,0.00,,,0.05,,2013-04-11 22:02:00,
2013-04-11 16:13:00,48.0,30.0,29.98,SW,221,10.0,23.0,50,0.00,,,0.05,,2013-04-11 22:13:00,
2013-04-11 16:22:00,48.0,30.0,29.98,SW,234,11.0,21.0,50,0.00,,,0.05,,2013-04-11 22:22:00,
2013-04-11 16:32:00,48.0,31.0,29.98,WSW,239,8.0,24.0,52,0.00,,,0.05,,2013-04-11 22:32:00,
2013-04-11 16:43:00,48.0,31.0,29.98,WSW,239,8.0,24.0,52,0.00,,,0.05,,2013-04-11 22:43:00,
2013-04-11 16:52:00,48.0,31.0,29.97,SW,227,12.0,28.0,52,0.00,,,0.05,,2013-04-11 22:52:00,
2013-04-11 17:03:00,48.0,30.0,29.96,SSW,197,12.0,21.0,50,0.00,,,0.05,,2013-04-11 23:03:00,
2013-04-11 17:12:00,48.0,30.0,29.96,SSW,197,12.0,21.0,50,0.00,,,0.05,,2013-04-11 23:12:00,
2013-04-11 17:22:00,49.0,30.0,29.96,West,273,10.0,22.0,47,0.00,,,0.05,,2013-04-11 23:22:00,
2013-04-11 17:32:00,49.0,29.0,29.96,WSW,243,9.0,18.0,46,0.00,,,0.05,,2013-04-11 23:32:00,
2013-04-11 17:42:00,49.0,29.0,29.96,WSW,243,9.0,18.0,46,0.00,,,0.05,,2013-04-11 23:42:00,
2013-04-11 17:52:00,48.0,29.0,29.96,South,178,7.0,21.0,47,0.00,,,0.05,,2013-04-11 23:52:00,
2013-04-11 18:02:00,49.0,30.0,29.97,WSW,257,10.0,20.0,47,0.00,,,0.05,,2013-04-12 00:02:00,
2013-04-11 18:11:00,49.0,30.0,29.97,WSW,257,10.0,20.0,47,0.00,,,0.05,,2013-04-12 00:11:00,
2013-04-11 18:21:00,48.0,30.0,29.96,SW,220,7.0,21.0,50,0.00,,,0.04,,2013-04-12 00:21:00,
2013-04-11 18:32:00,47.0,31.0,29.97,SSW,212,11.0,19.0,54,0.00,,,0.04,,2013-04-12 00:32:00,
2013-04-11 18:42:00,47.0,31.0,29.97,SSW,212,11.0,19.0,54,0.00,,,0.04,,2013-04-12 00:42:00,
2013-04-11 18:52:00,46.0,32.0,29.98,South,181,5.0,15.0,57,0.00,,,0.04,,2013-04-12 00:52:00,
2013-04-11 19:02:00,47.0,32.0,29.98,SW,215,1.0,9.0,55,0.00,,,0.04,,2013-04-12 01:02:00,
2013-04-11 19:11:00,47.0,32.0,29.98,SW,215,1.0,9.0,55,0.00,,,0.04,,2013-04-12 01:11:00,
2013-04-11 19:22:00,47.0,30.0,29.98,West,276,1.0,6.0,52,0.00,,,0.02,,2013-04-12 01:22:00,
2013-04-11 19:32:00,47.0,31.0,29.98,West,265,5.0,11.0,53,0.00,,,0.02,,2013-04-12 01:32:00,
2013-04-11 19:42:00,47.0,31.0,29.98,West,265,5.0,11.0,53,0.00,,,0.02,,2013-04-12 01:42:00,
2013-04-11 19:52:00,46.0,29.0,29.98,WNW,294,8.0,14.0,52,0.00,,,0.02,,2013-04-12 01:52:00,
2013-04-11 20:02:00,46.0,30.0,29.98,WNW,298,2.0,8.0,53,0.00,,,0.02,,2013-04-12 02:02:00,
2013-04-11 20:12:00,46.0,30.0,29.98,WNW,298,2.0,8.0,53,0.00,,,0.02,,2013-04-12 02:12:00,
2013-04-11 20:22:00,45.0,31.0,29.99,WNW,290,7.0,13.0,57,0.00,,,0.01,,2013-04-12 02:22:00,
2013-04-11 20:32:00,44.0,31.0,30.00,West,268,10.0,16.0,61,0.00,,,0.01,,2013-04-12 02:32:00,
2013-04-11 20:42:00,44.0,31.0,30.00,West,268,10.0,16.0,61,0.00,,,0.01,,2013-04-12 02:42:00,
2013-04-11 20:52:00,43.0,32.0,30.00,WSW,257,4.0,12.0,65,0.00,,,0.01,,2013-04-12 02:52:00,
2013-04-11 21:02:00,42.0,31.0,30.01,West,265,5.0,11.0,65,0.00,,,0.01,,2013-04-12 03:02:00,
2013-04-11 21:11:00,42.0,31.0,30.01,West,265,5.0,11.0,65,0.00,,,0.01,,2013-04-12 03:11:00,
2013-04-11 21:22:00,42.0,32.0,30.02,West,278,1.0,6.0,67,0.00,,,0.00,,2013-04-12 03:22:00,
2013-04-11 21:33:00,42.0,33.0,30.03,West,277,0.0,2.0,69,0.00,,,0.00,,2013-04-12 03:33:00,
2013-04-11 21:43:00,42.0,33.0,30.03,West,277,0.0,2.0,69,0.00,,,0.00,,2013-04-12 03:43:00,
2013-04-11 21:53:00,41.0,32.0,30.03,South,183,2.0,3.0,71,0.00,,,0.00,,2013-04-12 03:53:00,
2013-04-11 22:02:00,41.0,32.0,30.03,SW,233,2.0,5.0,70,0.00,,,0.00,,2013-04-12 04:02:00,
2013-04-11 22:12:00,41.0,32.0,30.03,SW,233,2.0,5.0,70,0.00,,,0.00,,2013-04-12 04:12:00,
2013-04-11 22:22:00,41.0,32.0,30.04,SSW,200,4.0,9.0,70,0.00,,,0.00,,2013-04-12 04:22:00,
2013-04-11 22:33:00,41.0,32.0,30.04,SSW,211,4.0,8.0,69,0.00,,,0.00,,2013-04-12 04:33:00,
2013-04-11 22:42:00,41.0,32.0,30.04,SSW,211,4.0,8.0,69,0.00,,,0.00,,2013-04-12 04:42:00,
2013-04-11 22:52:00,41.0,32.0,30.05,SW,216,4.0,9.0,70,0.00,,,0.00,,2013-04-12 04:52:00,
2013-04-11 23:02:00,40.0,32.0,30.05,SSW,206,4.0,9.0,72,0.00,,,0.00,,2013-04-12 05:02:00,
2013-04-11 23:11:00,40.0,32.0,30.05,SSW,206,4.0,9.0,72,0.00,,,0.00,,2013-04-12 05:11:00,
2013-04-11 23:22:00,40.0,32.0,30.05,SW,221,6.0,10.0,73,0.00,,,0.00,,2013-04-12 05:22:00,
2013-04-11 23:32:00,40.0,32.0,30.05,WSW,244,2.0,7.0,74,0.00,,,0.00,,2013-04-12 05:32:00,
2013-04-11 23:42:00,40.0,32.0,30.05,WSW,244,2.0,7.0,74,0.00,,,0.00,,2013-04-12 05:42:00,
2013-04-11 23:52:00,39.0,32.0,30.05,SW,223,1.0,10.0,76,0.00,,,0.00,,2013-04-12 05:52:00,